sensor_id;sensor_type;location;lat;lon;timestamp;temperature;humidity
13569;DHT22;6856;51.460;7.158;2022-11-20T00:00:43;2.80;57.80
13569;DHT22;6856;51.460;7.158;2022-11-20T00:03:25;2.90;58.90
13569;DHT22;6856;51.460;7.158;2022-11-20T00:06:13;2.90;59.10
13569;DHT22;6856;51.460;7.158;2022-11-20T00:09:13;2.90;58.60
13569;DHT22;6856;51.460;7.158;2022-11-20T00:11:58;2.90;59.60
13569;DHT22;6856;51.460;7.158;2022-11-20T00:14:39;2.90;58.90
13569;DHT22;6856;51.460;7.158;2022-11-20T00:17:30;2.90;59.00
13569;DHT22;6856;51.460;7.158;2022-11-20T00:20:17;2.90;59.40
13569;DHT22;6856;51.460;7.158;2022-11-20T00:23:01;2.90;58.70
13569;DHT22;6856;51.460;7.158;2022-11-20T00:25:51;2.90;59.00
13569;DHT22;6856;51.460;7.158;2022-11-20T00:28:32;3.00;58.60
13569;DHT22;6856;51.460;7.158;2022-11-20T00:31:11;3.00;59.10
13569;DHT22;6856;51.460;7.158;2022-11-20T00:33:59;3.00;59.20
13569;DHT22;6856;51.460;7.158;2022-11-20T00:36:44;3.00;59.70
13569;DHT22;6856;51.460;7.158;2022-11-20T00:39:21;3.20;58.70
13569;DHT22;6856;51.460;7.158;2022-11-20T00:42:03;3.00;58.40
13569;DHT22;6856;51.460;7.158;2022-11-20T00:44:46;3.10;59.20
13569;DHT22;6856;51.460;7.158;2022-11-20T00:47:22;3.10;59.30
13569;DHT22;6856;51.460;7.158;2022-11-20T00:50:08;3.10;58.00
13569;DHT22;6856;51.460;7.158;2022-11-20T00:52:50;3.10;59.40
13569;DHT22;6856;51.460;7.158;2022-11-20T00:55:26;3.10;58.50
13569;DHT22;6856;51.460;7.158;2022-11-20T00:58:12;3.10;59.10
13569;DHT22;6856;51.460;7.158;2022-11-20T01:01:18;3.10;59.00
13569;DHT22;6856;51.460;7.158;2022-11-20T01:04:21;3.10;59.60
13569;DHT22;6856;51.460;7.158;2022-11-20T01:06:58;3.20;58.70
13569;DHT22;6856;51.460;7.158;2022-11-20T01:09:37;3.10;58.80
13569;DHT22;6856;51.460;7.158;2022-11-20T01:12:38;3.00;59.00
13569;DHT22;6856;51.460;7.158;2022-11-20T01:15:20;3.00;58.90
13569;DHT22;6856;51.460;7.158;2022-11-20T01:18:08;3.00;58.40
13569;DHT22;6856;51.460;7.158;2022-11-20T01:21:14;3.00;58.20
13569;DHT22;6856;51.460;7.158;2022-11-20T01:23:55;2.90;58.60
13569;DHT22;6856;51.460;7.158;2022-11-20T01:26:33;3.10;59.10
13569;DHT22;6856;51.460;7.158;2022-11-20T01:29:27;2.90;59.00
13569;DHT22;6856;51.460;7.158;2022-11-20T01:32:07;2.80;60.10
13569;DHT22;6856;51.460;7.158;2022-11-20T01:35:25;2.90;58.80
13569;DHT22;6856;51.460;7.158;2022-11-20T01:38:07;2.90;58.70
13569;DHT22;6856;51.460;7.158;2022-11-20T01:40:59;2.90;58.50
13569;DHT22;6856;51.460;7.158;2022-11-20T01:43:59;2.90;59.10
13569;DHT22;6856;51.460;7.158;2022-11-20T01:47:01;2.90;59.40
13569;DHT22;6856;51.460;7.158;2022-11-20T01:53:30;2.90;59.40
13569;DHT22;6856;51.460;7.158;2022-11-20T01:57:35;2.90;59.40
13569;DHT22;6856;51.460;7.158;2022-11-20T02:00:58;2.90;59.70
13569;DHT22;6856;51.460;7.158;2022-11-20T02:04:10;2.80;59.00
13569;DHT22;6856;51.460;7.158;2022-11-20T02:07:11;2.60;58.90
13569;DHT22;6856;51.460;7.158;2022-11-20T02:10:08;2.90;59.70
13569;DHT22;6856;51.460;7.158;2022-11-20T02:13:25;2.80;59.50
13569;DHT22;6856;51.460;7.158;2022-11-20T02:16:33;2.90;59.90
13569;DHT22;6856;51.460;7.158;2022-11-20T02:19:32;2.90;59.50
13569;DHT22;6856;51.460;7.158;2022-11-20T02:22:33;2.90;59.70
13569;DHT22;6856;51.460;7.158;2022-11-20T02:25:34;2.70;60.30
13569;DHT22;6856;51.460;7.158;2022-11-20T02:28:25;2.90;60.30
13569;DHT22;6856;51.460;7.158;2022-11-20T02:31:11;2.90;60.50
13569;DHT22;6856;51.460;7.158;2022-11-20T02:33:58;3.10;59.80
13569;DHT22;6856;51.460;7.158;2022-11-20T02:36:43;2.90;60.30
13569;DHT22;6856;51.460;7.158;2022-11-20T02:40:09;3.00;60.50
13569;DHT22;6856;51.460;7.158;2022-11-20T02:42:56;3.00;60.90
13569;DHT22;6856;51.460;7.158;2022-11-20T02:46:03;3.20;60.90
13569;DHT22;6856;51.460;7.158;2022-11-20T02:48:46;3.10;61.10
13569;DHT22;6856;51.460;7.158;2022-11-20T02:51:23;3.10;60.00
13569;DHT22;6856;51.460;7.158;2022-11-20T02:54:10;3.10;60.10
13569;DHT22;6856;51.460;7.158;2022-11-20T02:57:18;3.10;59.80
13569;DHT22;6856;51.460;7.158;2022-11-20T03:00:23;3.10;61.30
13569;DHT22;6856;51.460;7.158;2022-11-20T03:03:06;3.10;60.50
13569;DHT22;6856;51.460;7.158;2022-11-20T03:05:55;3.10;60.00
13569;DHT22;6856;51.460;7.158;2022-11-20T03:08:44;3.30;60.80
13569;DHT22;6856;51.460;7.158;2022-11-20T03:11:20;3.20;60.40
13569;DHT22;6856;51.460;7.158;2022-11-20T03:14:11;2.90;59.60
13569;DHT22;6856;51.460;7.158;2022-11-20T03:17:34;3.40;60.40
13569;DHT22;6856;51.460;7.158;2022-11-20T03:20:48;3.20;61.80
13569;DHT22;6856;51.460;7.158;2022-11-20T03:23:37;3.00;60.40
13569;DHT22;6856;51.460;7.158;2022-11-20T03:26:26;3.20;60.60
13569;DHT22;6856;51.460;7.158;2022-11-20T03:29:23;3.50;60.20
13569;DHT22;6856;51.460;7.158;2022-11-20T03:32:40;3.30;61.10
13569;DHT22;6856;51.460;7.158;2022-11-20T03:35:46;3.30;61.80
13569;DHT22;6856;51.460;7.158;2022-11-20T03:38:25;3.30;61.10
13569;DHT22;6856;51.460;7.158;2022-11-20T03:41:21;3.30;60.80
13569;DHT22;6856;51.460;7.158;2022-11-20T03:44:16;3.30;61.20
13569;DHT22;6856;51.460;7.158;2022-11-20T03:47:02;3.30;60.20
13569;DHT22;6856;51.460;7.158;2022-11-20T03:50:07;3.40;61.60
13569;DHT22;6856;51.460;7.158;2022-11-20T03:52:49;3.40;62.00
13569;DHT22;6856;51.460;7.158;2022-11-20T03:55:40;3.40;60.90
13569;DHT22;6856;51.460;7.158;2022-11-20T03:58:25;3.40;63.10
13569;DHT22;6856;51.460;7.158;2022-11-20T04:05:33;3.40;62.70
13569;DHT22;6856;51.460;7.158;2022-11-20T04:08:25;3.50;61.40
13569;DHT22;6856;51.460;7.158;2022-11-20T04:14:41;3.70;62.60
13569;DHT22;6856;51.460;7.158;2022-11-20T04:17:48;3.50;62.40
13569;DHT22;6856;51.460;7.158;2022-11-20T04:20:46;3.60;61.30
13569;DHT22;6856;51.460;7.158;2022-11-20T04:23:25;3.60;61.80
13569;DHT22;6856;51.460;7.158;2022-11-20T04:26:43;3.50;61.50
13569;DHT22;6856;51.460;7.158;2022-11-20T04:29:41;3.60;60.90
13569;DHT22;6856;51.460;7.158;2022-11-20T04:32:22;3.60;62.30
13569;DHT22;6856;51.460;7.158;2022-11-20T04:34:59;3.70;61.20
13569;DHT22;6856;51.460;7.158;2022-11-20T04:37:57;3.60;61.90
13569;DHT22;6856;51.460;7.158;2022-11-20T04:40:44;3.60;62.10
13569;DHT22;6856;51.460;7.158;2022-11-20T04:43:31;3.60;62.50
13569;DHT22;6856;51.460;7.158;2022-11-20T04:46:37;3.60;62.70
13569;DHT22;6856;51.460;7.158;2022-11-20T04:49:14;3.60;62.40
13569;DHT22;6856;51.460;7.158;2022-11-20T04:52:00;3.50;61.60
13569;DHT22;6856;51.460;7.158;2022-11-20T04:55:16;3.60;61.80
13569;DHT22;6856;51.460;7.158;2022-11-20T04:57:56;3.60;62.90
13569;DHT22;6856;51.460;7.158;2022-11-20T05:00:36;3.60;62.20
13569;DHT22;6856;51.460;7.158;2022-11-20T05:03:26;3.60;62.70
13569;DHT22;6856;51.460;7.158;2022-11-20T05:06:04;3.70;61.80
13569;DHT22;6856;51.460;7.158;2022-11-20T05:09:06;3.70;62.40
13569;DHT22;6856;51.460;7.158;2022-11-20T05:12:24;3.70;62.60
13569;DHT22;6856;51.460;7.158;2022-11-20T05:15:04;3.70;62.90
13569;DHT22;6856;51.460;7.158;2022-11-20T05:17:51;3.70;62.50
13569;DHT22;6856;51.460;7.158;2022-11-20T05:20:28;3.70;62.10
13569;DHT22;6856;51.460;7.158;2022-11-20T05:23:30;3.80;61.60
13569;DHT22;6856;51.460;7.158;2022-11-20T05:26:31;3.70;62.40
13569;DHT22;6856;51.460;7.158;2022-11-20T05:29:31;3.70;62.30
13569;DHT22;6856;51.460;7.158;2022-11-20T05:32:09;3.90;61.70
13569;DHT22;6856;51.460;7.158;2022-11-20T05:35:03;3.70;61.70
13569;DHT22;6856;51.460;7.158;2022-11-20T05:37:40;3.70;62.00
13569;DHT22;6856;51.460;7.158;2022-11-20T05:43:19;3.70;62.50
13569;DHT22;6856;51.460;7.158;2022-11-20T05:46:33;3.50;61.90
13569;DHT22;6856;51.460;7.158;2022-11-20T05:49:10;3.70;62.30
13569;DHT22;6856;51.460;7.158;2022-11-20T05:52:02;3.70;62.00
13569;DHT22;6856;51.460;7.158;2022-11-20T05:54:40;3.70;62.10
13569;DHT22;6856;51.460;7.158;2022-11-20T05:57:54;3.70;62.80
13569;DHT22;6856;51.460;7.158;2022-11-20T06:00:38;3.50;62.40
13569;DHT22;6856;51.460;7.158;2022-11-20T06:03:20;3.90;61.60
13569;DHT22;6856;51.460;7.158;2022-11-20T06:06:25;3.70;61.80
13569;DHT22;6856;51.460;7.158;2022-11-20T06:09:14;3.70;62.50
13569;DHT22;6856;51.460;7.158;2022-11-20T06:11:55;3.90;62.80
13569;DHT22;6856;51.460;7.158;2022-11-20T06:14:40;3.80;61.80
13569;DHT22;6856;51.460;7.158;2022-11-20T06:17:22;3.80;62.00
13569;DHT22;6856;51.460;7.158;2022-11-20T06:20:18;4.00;63.20
13569;DHT22;6856;51.460;7.158;2022-11-20T06:23:03;3.80;62.60
13569;DHT22;6856;51.460;7.158;2022-11-20T06:25:46;3.80;62.30
13569;DHT22;6856;51.460;7.158;2022-11-20T06:28:26;3.80;61.60
13569;DHT22;6856;51.460;7.158;2022-11-20T06:31:05;4.00;62.60
13569;DHT22;6856;51.460;7.158;2022-11-20T06:33:44;3.90;62.20
13569;DHT22;6856;51.460;7.158;2022-11-20T06:36:24;3.90;63.10
13569;DHT22;6856;51.460;7.158;2022-11-20T06:39:15;3.90;62.60
13569;DHT22;6856;51.460;7.158;2022-11-20T06:41:53;3.90;62.40
13569;DHT22;6856;51.460;7.158;2022-11-20T06:44:31;4.10;62.20
13569;DHT22;6856;51.460;7.158;2022-11-20T06:47:06;3.90;62.90
13569;DHT22;6856;51.460;7.158;2022-11-20T06:49:47;3.90;62.20
13569;DHT22;6856;51.460;7.158;2022-11-20T06:52:25;3.90;62.10
13569;DHT22;6856;51.460;7.158;2022-11-20T06:55:04;4.10;62.50
13569;DHT22;6856;51.460;7.158;2022-11-20T06:57:40;3.90;62.90
13569;DHT22;6856;51.460;7.158;2022-11-20T07:00:18;3.90;61.70
13569;DHT22;6856;51.460;7.158;2022-11-20T07:03:16;4.10;62.00
13569;DHT22;6856;51.460;7.158;2022-11-20T07:06:00;4.10;61.90
13569;DHT22;6856;51.460;7.158;2022-11-20T07:08:43;3.90;62.00
13569;DHT22;6856;51.460;7.158;2022-11-20T07:11:22;3.90;61.70
13569;DHT22;6856;51.460;7.158;2022-11-20T07:14:02;3.90;62.20
13569;DHT22;6856;51.460;7.158;2022-11-20T07:16:38;3.90;61.60
13569;DHT22;6856;51.460;7.158;2022-11-20T07:19:18;3.90;62.10
13569;DHT22;6856;51.460;7.158;2022-11-20T07:22:00;3.80;61.90
13569;DHT22;6856;51.460;7.158;2022-11-20T07:24:43;3.80;60.70
13569;DHT22;6856;51.460;7.158;2022-11-20T07:27:41;3.80;61.50
13569;DHT22;6856;51.460;7.158;2022-11-20T07:30:21;3.90;61.00
13569;DHT22;6856;51.460;7.158;2022-11-20T07:32:57;3.80;61.10
13569;DHT22;6856;51.460;7.158;2022-11-20T07:35:35;3.80;61.10
13569;DHT22;6856;51.460;7.158;2022-11-20T07:38:19;3.80;61.50
13569;DHT22;6856;51.460;7.158;2022-11-20T07:41:23;3.80;61.10
13569;DHT22;6856;51.460;7.158;2022-11-20T07:44:16;3.80;60.80
13569;DHT22;6856;51.460;7.158;2022-11-20T07:47:35;3.60;62.10
13569;DHT22;6856;51.460;7.158;2022-11-20T07:50:34;3.70;62.20
13569;DHT22;6856;51.460;7.158;2022-11-20T07:53:09;3.80;61.00
13569;DHT22;6856;51.460;7.158;2022-11-20T07:59:15;3.60;61.70
13569;DHT22;6856;51.460;7.158;2022-11-20T08:06:58;3.80;62.80
13569;DHT22;6856;51.460;7.158;2022-11-20T08:13:44;3.80;62.50
13569;DHT22;6856;51.460;7.158;2022-11-20T08:16:36;3.90;61.60
13569;DHT22;6856;51.460;7.158;2022-11-20T08:19:18;3.90;62.30
13569;DHT22;6856;51.460;7.158;2022-11-20T08:22:29;3.90;62.50
13569;DHT22;6856;51.460;7.158;2022-11-20T08:24:59;3.90;62.10
13569;DHT22;6856;51.460;7.158;2022-11-20T08:27:45;4.00;61.90
13569;DHT22;6856;51.460;7.158;2022-11-20T08:30:35;4.00;61.90
13569;DHT22;6856;51.460;7.158;2022-11-20T08:33:28;3.80;62.80
13569;DHT22;6856;51.460;7.158;2022-11-20T08:36:21;4.10;62.20
13569;DHT22;6856;51.460;7.158;2022-11-20T08:39:38;4.10;62.60
13569;DHT22;6856;51.460;7.158;2022-11-20T08:42:46;4.10;63.20
13569;DHT22;6856;51.460;7.158;2022-11-20T08:45:29;4.00;63.10
13569;DHT22;6856;51.460;7.158;2022-11-20T08:48:13;4.20;63.00
13569;DHT22;6856;51.460;7.158;2022-11-20T08:50:52;4.30;63.60
13569;DHT22;6856;51.460;7.158;2022-11-20T08:53:38;4.50;63.00
13569;DHT22;6856;51.460;7.158;2022-11-20T08:56:38;4.40;62.70
13569;DHT22;6856;51.460;7.158;2022-11-20T08:59:38;4.40;63.90
13569;DHT22;6856;51.460;7.158;2022-11-20T09:02:52;4.50;62.70
13569;DHT22;6856;51.460;7.158;2022-11-20T09:05:37;4.30;63.80
13569;DHT22;6856;51.460;7.158;2022-11-20T09:08:15;4.60;64.00
13569;DHT22;6856;51.460;7.158;2022-11-20T09:10:51;4.60;64.10
13569;DHT22;6856;51.460;7.158;2022-11-20T09:13:33;4.70;63.60
13569;DHT22;6856;51.460;7.158;2022-11-20T09:16:13;4.80;63.00
13569;DHT22;6856;51.460;7.158;2022-11-20T09:19:17;4.90;63.40
13569;DHT22;6856;51.460;7.158;2022-11-20T09:22:11;4.90;64.20
13569;DHT22;6856;51.460;7.158;2022-11-20T09:24:55;5.00;63.30
13569;DHT22;6856;51.460;7.158;2022-11-20T09:27:44;5.10;63.20
13569;DHT22;6856;51.460;7.158;2022-11-20T09:30:26;5.10;63.90
13569;DHT22;6856;51.460;7.158;2022-11-20T09:36:01;5.30;64.10
13569;DHT22;6856;51.460;7.158;2022-11-20T09:38:44;5.30;64.20
13569;DHT22;6856;51.460;7.158;2022-11-20T09:41:39;5.40;63.70
13569;DHT22;6856;51.460;7.158;2022-11-20T09:48:04;5.60;64.30
13569;DHT22;6856;51.460;7.158;2022-11-20T09:50:58;5.40;64.10
13569;DHT22;6856;51.460;7.158;2022-11-20T09:54:13;5.60;63.70
13569;DHT22;6856;51.460;7.158;2022-11-20T09:56:59;5.70;63.90
13569;DHT22;6856;51.460;7.158;2022-11-20T09:59:41;5.70;63.00
13569;DHT22;6856;51.460;7.158;2022-11-20T10:02:41;5.80;63.40
13569;DHT22;6856;51.460;7.158;2022-11-20T10:05:44;5.80;63.80
13569;DHT22;6856;51.460;7.158;2022-11-20T10:08:39;6.10;63.40
13569;DHT22;6856;51.460;7.158;2022-11-20T10:11:48;6.00;63.50
13569;DHT22;6856;51.460;7.158;2022-11-20T10:14:48;6.00;63.50
13569;DHT22;6856;51.460;7.158;2022-11-20T10:18:05;6.10;63.50
13569;DHT22;6856;51.460;7.158;2022-11-20T10:21:28;6.10;63.40
13569;DHT22;6856;51.460;7.158;2022-11-20T10:24:43;6.20;63.00
13569;DHT22;6856;51.460;7.158;2022-11-20T10:27:54;6.20;62.70
13569;DHT22;6856;51.460;7.158;2022-11-20T10:30:57;6.20;63.10
13569;DHT22;6856;51.460;7.158;2022-11-20T10:33:53;6.30;63.60
13569;DHT22;6856;51.460;7.158;2022-11-20T10:36:55;6.40;63.10
13569;DHT22;6856;51.460;7.158;2022-11-20T10:40:00;6.60;62.90
13569;DHT22;6856;51.460;7.158;2022-11-20T10:42:50;6.50;62.20
13569;DHT22;6856;51.460;7.158;2022-11-20T10:45:44;6.60;62.40
13569;DHT22;6856;51.460;7.158;2022-11-20T10:51:49;6.70;61.00
13569;DHT22;6856;51.460;7.158;2022-11-20T10:54:43;6.70;61.70
13569;DHT22;6856;51.460;7.158;2022-11-20T10:57:35;6.70;61.70
13569;DHT22;6856;51.460;7.158;2022-11-20T11:00:31;6.80;61.70
13569;DHT22;6856;51.460;7.158;2022-11-20T11:03:20;6.80;61.20
13569;DHT22;6856;51.460;7.158;2022-11-20T11:06:03;6.80;61.70
13569;DHT22;6856;51.460;7.158;2022-11-20T11:08:43;6.90;61.20
13569;DHT22;6856;51.460;7.158;2022-11-20T11:11:33;6.90;59.90
13569;DHT22;6856;51.460;7.158;2022-11-20T11:14:27;7.00;60.20
13569;DHT22;6856;51.460;7.158;2022-11-20T11:17:56;7.00;61.40
13569;DHT22;6856;51.460;7.158;2022-11-20T11:21:04;7.00;61.30
13569;DHT22;6856;51.460;7.158;2022-11-20T11:23:42;7.10;61.40
13569;DHT22;6856;51.460;7.158;2022-11-20T11:27:01;7.10;60.00
13569;DHT22;6856;51.460;7.158;2022-11-20T11:30:40;7.10;60.20
13569;DHT22;6856;51.460;7.158;2022-11-20T11:34:32;7.20;60.30
13569;DHT22;6856;51.460;7.158;2022-11-20T11:38:19;7.40;60.20
13569;DHT22;6856;51.460;7.158;2022-11-20T11:42:07;7.30;59.90
13569;DHT22;6856;51.460;7.158;2022-11-20T11:49:49;7.10;60.50
13569;DHT22;6856;51.460;7.158;2022-11-20T11:53:23;7.40;60.30
13569;DHT22;6856;51.460;7.158;2022-11-20T11:57:01;7.20;59.40
13569;DHT22;6856;51.460;7.158;2022-11-20T12:00:45;7.40;59.90
13569;DHT22;6856;51.460;7.158;2022-11-20T12:12:08;7.60;60.50
13569;DHT22;6856;51.460;7.158;2022-11-20T12:15:32;7.60;59.90
13569;DHT22;6856;51.460;7.158;2022-11-20T12:18:33;7.60;60.20
13569;DHT22;6856;51.460;7.158;2022-11-20T12:22:24;7.70;59.50
13569;DHT22;6856;51.460;7.158;2022-11-20T12:29:05;7.70;59.80
13569;DHT22;6856;51.460;7.158;2022-11-20T12:36:40;7.70;59.80
13569;DHT22;6856;51.460;7.158;2022-11-20T12:47:31;7.50;59.80
13569;DHT22;6856;51.460;7.158;2022-11-20T12:56:09;7.80;59.70
13569;DHT22;6856;51.460;7.158;2022-11-20T12:59:49;7.70;59.30
13569;DHT22;6856;51.460;7.158;2022-11-20T13:03:51;7.70;59.60
13569;DHT22;6856;51.460;7.158;2022-11-20T13:07:08;7.70;59.40
13569;DHT22;6856;51.460;7.158;2022-11-20T13:12:20;7.80;59.90
13569;DHT22;6856;51.460;7.158;2022-11-20T13:15:00;7.50;60.00
13569;DHT22;6856;51.460;7.158;2022-11-20T13:22:41;7.70;60.30
13569;DHT22;6856;51.460;7.158;2022-11-20T13:26:58;7.50;60.20
13569;DHT22;6856;51.460;7.158;2022-11-20T13:30:36;7.70;59.70
13569;DHT22;6856;51.460;7.158;2022-11-20T13:33:55;7.70;60.10
13569;DHT22;6856;51.460;7.158;2022-11-20T13:37:41;7.90;59.20
13569;DHT22;6856;51.460;7.158;2022-11-20T13:40:23;7.70;58.90
13569;DHT22;6856;51.460;7.158;2022-11-20T13:43:26;7.70;59.00
13569;DHT22;6856;51.460;7.158;2022-11-20T13:46:21;7.70;59.60
13569;DHT22;6856;51.460;7.158;2022-11-20T13:49:10;7.70;58.80
13569;DHT22;6856;51.460;7.158;2022-11-20T13:52:29;7.70;59.70
13569;DHT22;6856;51.460;7.158;2022-11-20T13:55:26;7.80;60.00
13569;DHT22;6856;51.460;7.158;2022-11-20T13:58:27;7.70;60.10
13569;DHT22;6856;51.460;7.158;2022-11-20T14:01:26;7.80;60.10
13569;DHT22;6856;51.460;7.158;2022-11-20T14:04:11;7.80;59.20
13569;DHT22;6856;51.460;7.158;2022-11-20T14:07:14;7.60;60.10
13569;DHT22;6856;51.460;7.158;2022-11-20T14:10:20;7.80;60.00
13569;DHT22;6856;51.460;7.158;2022-11-20T14:13:12;7.80;60.10
13569;DHT22;6856;51.460;7.158;2022-11-20T14:15:58;7.80;59.30
13569;DHT22;6856;51.460;7.158;2022-11-20T14:22:20;7.70;59.50
13569;DHT22;6856;51.460;7.158;2022-11-20T14:25:05;7.90;59.50
13569;DHT22;6856;51.460;7.158;2022-11-20T14:28:06;7.70;59.80
13569;DHT22;6856;51.460;7.158;2022-11-20T14:31:29;7.90;59.30
13569;DHT22;6856;51.460;7.158;2022-11-20T14:34:24;7.90;59.90
13569;DHT22;6856;51.460;7.158;2022-11-20T14:37:10;8.00;59.40
13569;DHT22;6856;51.460;7.158;2022-11-20T14:43:57;7.90;60.60
13569;DHT22;6856;51.460;7.158;2022-11-20T14:46:42;7.90;60.40
13569;DHT22;6856;51.460;7.158;2022-11-20T14:49:25;7.90;59.90
13569;DHT22;6856;51.460;7.158;2022-11-20T14:52:12;7.80;59.70
13569;DHT22;6856;51.460;7.158;2022-11-20T14:54:50;8.00;60.60
13569;DHT22;6856;51.460;7.158;2022-11-20T14:57:40;7.90;61.20
13569;DHT22;6856;51.460;7.158;2022-11-20T15:00:20;7.90;60.20
13569;DHT22;6856;51.460;7.158;2022-11-20T15:02:56;7.80;60.50
13569;DHT22;6856;51.460;7.158;2022-11-20T15:05:47;7.80;61.50
13569;DHT22;6856;51.460;7.158;2022-11-20T15:08:33;7.60;61.30
13569;DHT22;6856;51.460;7.158;2022-11-20T15:11:18;7.80;61.20
13569;DHT22;6856;51.460;7.158;2022-11-20T15:14:05;7.90;60.70
13569;DHT22;6856;51.460;7.158;2022-11-20T15:16:47;7.80;59.70
13569;DHT22;6856;51.460;7.158;2022-11-20T15:28:48;7.60;62.30
13569;DHT22;6856;51.460;7.158;2022-11-20T15:40:46;7.70;62.00
13569;DHT22;6856;51.460;7.158;2022-11-20T16:12:54;7.50;62.40
13569;DHT22;6856;51.460;7.158;2022-11-20T16:15:52;7.50;61.30
13569;DHT22;6856;51.460;7.158;2022-11-20T16:18:40;7.50;62.30
13569;DHT22;6856;51.460;7.158;2022-11-20T16:21:37;7.50;62.40
13569;DHT22;6856;51.460;7.158;2022-11-20T16:24:18;7.50;63.10
13569;DHT22;6856;51.460;7.158;2022-11-20T16:27:14;7.50;62.40
13569;DHT22;6856;51.460;7.158;2022-11-20T16:29:56;7.50;63.40
13569;DHT22;6856;51.460;7.158;2022-11-20T16:32:41;7.50;63.00
13569;DHT22;6856;51.460;7.158;2022-11-20T16:35:16;7.50;62.70
13569;DHT22;6856;51.460;7.158;2022-11-20T16:38:03;7.30;63.10
13569;DHT22;6856;51.460;7.158;2022-11-20T16:40:41;7.50;64.40
13569;DHT22;6856;51.460;7.158;2022-11-20T16:43:18;7.60;63.40
13569;DHT22;6856;51.460;7.158;2022-11-20T16:46:33;7.60;63.50
13569;DHT22;6856;51.460;7.158;2022-11-20T16:49:23;7.60;64.90
13569;DHT22;6856;51.460;7.158;2022-11-20T16:52:16;7.80;63.80
13569;DHT22;6856;51.460;7.158;2022-11-20T16:55:18;7.60;63.90
13569;DHT22;6856;51.460;7.158;2022-11-20T16:58:04;7.60;64.70
13569;DHT22;6856;51.460;7.158;2022-11-20T17:01:10;7.70;64.90
13569;DHT22;6856;51.460;7.158;2022-11-20T17:04:08;7.70;64.80
13569;DHT22;6856;51.460;7.158;2022-11-20T17:07:22;7.70;64.90
13569;DHT22;6856;51.460;7.158;2022-11-20T17:10:21;7.70;65.10
13569;DHT22;6856;51.460;7.158;2022-11-20T17:13:09;7.70;64.30
13569;DHT22;6856;51.460;7.158;2022-11-20T17:15:49;7.70;64.50
13569;DHT22;6856;51.460;7.158;2022-11-20T17:18:57;7.80;64.90
13569;DHT22;6856;51.460;7.158;2022-11-20T17:21:42;7.60;65.60
13569;DHT22;6856;51.460;7.158;2022-11-20T17:25:00;7.80;63.30
13569;DHT22;6856;51.460;7.158;2022-11-20T17:27:55;7.80;66.50
13569;DHT22;6856;51.460;7.158;2022-11-20T17:31:27;7.80;64.40
13569;DHT22;6856;51.460;7.158;2022-11-20T17:34:29;7.70;66.40
13569;DHT22;6856;51.460;7.158;2022-11-20T17:37:21;7.70;66.30
13569;DHT22;6856;51.460;7.158;2022-11-20T17:40:24;7.90;65.10
13569;DHT22;6856;51.460;7.158;2022-11-20T17:43:34;7.70;65.10
13569;DHT22;6856;51.460;7.158;2022-11-20T17:46:36;7.70;65.60
13569;DHT22;6856;51.460;7.158;2022-11-20T17:49:34;7.90;65.80
13569;DHT22;6856;51.460;7.158;2022-11-20T17:55:55;8.00;67.10
13569;DHT22;6856;51.460;7.158;2022-11-20T17:59:26;7.80;64.80
13569;DHT22;6856;51.460;7.158;2022-11-20T18:50:10;8.00;67.00
13569;DHT22;6856;51.460;7.158;2022-11-20T18:54:04;8.10;66.10
13569;DHT22;6856;51.460;7.158;2022-11-20T19:02:35;8.10;67.60
13569;DHT22;6856;51.460;7.158;2022-11-20T19:05:15;8.10;66.80
13569;DHT22;6856;51.460;7.158;2022-11-20T19:08:02;8.10;66.10
13569;DHT22;6856;51.460;7.158;2022-11-20T19:11:04;8.10;67.20
13569;DHT22;6856;51.460;7.158;2022-11-20T19:14:33;8.10;67.50
13569;DHT22;6856;51.460;7.158;2022-11-20T19:17:34;8.20;68.30
13569;DHT22;6856;51.460;7.158;2022-11-20T19:20:11;8.20;68.00
13569;DHT22;6856;51.460;7.158;2022-11-20T19:22:54;8.20;67.40
13569;DHT22;6856;51.460;7.158;2022-11-20T19:25:42;8.20;67.10
13569;DHT22;6856;51.460;7.158;2022-11-20T19:28:39;8.20;67.90
13569;DHT22;6856;51.460;7.158;2022-11-20T19:35:30;8.30;68.70
13569;DHT22;6856;51.460;7.158;2022-11-20T19:38:32;8.30;67.40
13569;DHT22;6856;51.460;7.158;2022-11-20T19:41:35;8.40;68.50
13569;DHT22;6856;51.460;7.158;2022-11-20T19:44:48;8.40;68.20
13569;DHT22;6856;51.460;7.158;2022-11-20T19:47:28;8.40;69.10
13569;DHT22;6856;51.460;7.158;2022-11-20T19:50:45;8.60;67.40
13569;DHT22;6856;51.460;7.158;2022-11-20T19:53:45;8.50;67.80
13569;DHT22;6856;51.460;7.158;2022-11-20T20:00:38;8.60;69.80
13569;DHT22;6856;51.460;7.158;2022-11-20T20:03:14;8.80;68.30
13569;DHT22;6856;51.460;7.158;2022-11-20T20:06:20;8.60;68.90
13569;DHT22;6856;51.460;7.158;2022-11-20T20:09:02;8.70;70.40
13569;DHT22;6856;51.460;7.158;2022-11-20T20:12:04;8.80;69.50
13569;DHT22;6856;51.460;7.158;2022-11-20T20:14:45;8.60;69.90
13569;DHT22;6856;51.460;7.158;2022-11-20T20:17:59;8.90;69.70
13569;DHT22;6856;51.460;7.158;2022-11-20T20:20:37;8.90;70.90
13569;DHT22;6856;51.460;7.158;2022-11-20T20:23:15;9.10;69.20
13569;DHT22;6856;51.460;7.158;2022-11-20T20:25:58;9.00;69.80
13569;DHT22;6856;51.460;7.158;2022-11-20T20:28:44;9.10;69.60
13569;DHT22;6856;51.460;7.158;2022-11-20T20:31:38;9.30;70.00
13569;DHT22;6856;51.460;7.158;2022-11-20T20:34:54;9.20;70.20
13569;DHT22;6856;51.460;7.158;2022-11-20T20:37:52;9.20;70.30
13569;DHT22;6856;51.460;7.158;2022-11-20T20:40:47;9.30;71.00
13569;DHT22;6856;51.460;7.158;2022-11-20T20:43:37;9.30;70.00
13569;DHT22;6856;51.460;7.158;2022-11-20T20:46:32;9.30;70.20
13569;DHT22;6856;51.460;7.158;2022-11-20T20:49:24;9.40;70.10
13569;DHT22;6856;51.460;7.158;2022-11-20T20:52:02;9.40;69.70
13569;DHT22;6856;51.460;7.158;2022-11-20T20:54:41;9.50;69.90
13569;DHT22;6856;51.460;7.158;2022-11-20T20:57:18;9.50;70.00
13569;DHT22;6856;51.460;7.158;2022-11-20T20:59:54;9.60;70.30
13569;DHT22;6856;51.460;7.158;2022-11-20T21:03:09;9.50;70.20
13569;DHT22;6856;51.460;7.158;2022-11-20T21:06:02;9.50;69.90
13569;DHT22;6856;51.460;7.158;2022-11-20T21:08:45;9.50;69.60
13569;DHT22;6856;51.460;7.158;2022-11-20T21:11:22;9.50;69.40
13569;DHT22;6856;51.460;7.158;2022-11-20T21:14:31;9.50;69.20
13569;DHT22;6856;51.460;7.158;2022-11-20T21:17:34;9.50;69.20
13569;DHT22;6856;51.460;7.158;2022-11-20T21:20:48;9.40;70.30
13569;DHT22;6856;51.460;7.158;2022-11-20T21:24:32;9.70;69.60
13569;DHT22;6856;51.460;7.158;2022-11-20T21:27:35;9.50;69.40
13569;DHT22;6856;51.460;7.158;2022-11-20T21:30:40;9.50;69.40
13569;DHT22;6856;51.460;7.158;2022-11-20T21:33:46;9.50;69.30
13569;DHT22;6856;51.460;7.158;2022-11-20T21:36:37;9.40;68.80
13569;DHT22;6856;51.460;7.158;2022-11-20T21:39:26;9.50;68.60
13569;DHT22;6856;51.460;7.158;2022-11-20T21:42:27;9.30;68.00
13569;DHT22;6856;51.460;7.158;2022-11-20T21:45:17;9.30;68.30
13569;DHT22;6856;51.460;7.158;2022-11-20T21:48:07;9.20;67.90
13569;DHT22;6856;51.460;7.158;2022-11-20T21:51:23;9.10;68.60
13569;DHT22;6856;51.460;7.158;2022-11-20T21:54:17;9.10;67.80
13569;DHT22;6856;51.460;7.158;2022-11-20T22:01:00;9.00;69.30
13569;DHT22;6856;51.460;7.158;2022-11-20T22:04:01;9.00;68.80
13569;DHT22;6856;51.460;7.158;2022-11-20T22:06:54;9.10;68.00
13569;DHT22;6856;51.460;7.158;2022-11-20T22:09:47;8.90;68.50
13569;DHT22;6856;51.460;7.158;2022-11-20T22:12:49;8.70;67.90
13569;DHT22;6856;51.460;7.158;2022-11-20T22:16:08;8.80;68.40
13569;DHT22;6856;51.460;7.158;2022-11-20T22:19:19;8.70;68.80
13569;DHT22;6856;51.460;7.158;2022-11-20T22:22:26;8.60;68.70
13569;DHT22;6856;51.460;7.158;2022-11-20T22:25:21;8.40;68.50